Monroe, OR (97456)

12:41 PM PST on December 09, 2016 (GMT -0800)
Monroe | | Change Station

Elev 410 ft 44.32 °N, 123.31 °W | Updated 13 minutes ago

Rain
Rain
46.1 °F
Feels Like 46 °F
N
1.0
Wind Variable Wind from South
Gusts 3.0 mph

Today
High -- | Low -- °F
--% Chance of Precip.
Yesterday
High -- | Low -- °F
Precip. -- in
Pressure 30.05 in
Visibility 4.0 miles
Clouds Scattered Clouds 700 ft
Mostly Cloudy 2500 ft
Overcast 4400 ft
Windchill 46 °F
Dew Point 46 °F
Humidity 98%
Rainfall 0.04 in
Snow Depth Not available.
7:37 AM 4:33 PM
Waxing Gibbous, 77% visible
METAR KEUG 091954Z 17006KT 4SM BR SCT007 BKN025 OVC044 09/07 A3004 RMK AO2 RAB00E37 SLP174 P0003 T00890072
Pressure 30.05 in
Visibility 4.0 miles
Clouds Scattered Clouds 700 ft
Mostly Cloudy 2500 ft
Overcast 4400 ft
Windchill 46 °F
Dew Point 46 °F
Humidity 98%
Rainfall 0.04 in
Snow Depth Not available.
7:37 AM 4:33 PM
Waxing Gibbous, 77% visible
METAR KEUG 091954Z 17006KT 4SM BR SCT007 BKN025 OVC044 09/07 A3004 RMK AO2 RAB00E37 SLP174 P0003 T00890072

10-Day Weather Forecast

Almanac

Astronomy

Dec. 09, 2016 Rise Set
Actual Time
Civil Twilight
Nautical Twilight
Astronomical Twilight
Moon
Length of Visible Light
Length of Day
Tomorrow will be .
, % of the Moon is Illuminated

Today's Extremes

State Highs State Lows

Community

WunderPhotos

Upload Photos

1,956,517 photos uploaded!

WunderBlog® & News

Nearby

Air Quality

  Air Quality AQ Index Pollutant
Not available.

Snow Depth

Station Depth Elevation

Earthquake Activity

City Distance Mag. Time & Date
Minimum magnitude displayed is 2.5.

Coastal Water Temperatures

Place Temperature

Stations

Nearby Weather Stations

Station Location Temp. Windchill Dew Point Humidity Wind Precip. Elev Updated Type
                   

Watches & Warnings

There are currently no watches in effect.